createdAt,value
2022-08-26T00:00:48.701Z,101480.50
2022-08-26T00:03:16.537Z,101477.56
2022-08-26T00:05:45.219Z,101483.72
2022-08-26T00:08:14.872Z,101483.72
2022-08-26T00:10:42.444Z,101471.94
2022-08-26T00:13:10.057Z,101479.41
2022-08-26T00:15:36.934Z,101477.78
2022-08-26T00:18:03.497Z,101483.09
2022-08-26T00:20:43.689Z,101470.81
2022-08-26T00:23:10.064Z,101472.94
2022-08-26T00:25:37.811Z,101481.47
2022-08-26T00:28:09.196Z,101482.53
2022-08-26T00:30:38.102Z,101489.75
2022-08-26T00:33:05.040Z,101473.69
2022-08-26T00:35:33.554Z,101476.63
2022-08-26T00:38:01.517Z,101488.91
2022-08-26T00:40:36.889Z,101480.88
2022-08-26T00:43:09.366Z,101472.06
2022-08-26T00:45:46.253Z,101480.50
2022-08-26T00:48:16.304Z,101485.03
2022-08-26T00:50:50.369Z,101467.13
2022-08-26T00:53:18.238Z,101479.66
2022-08-26T00:55:44.854Z,101486.06
2022-08-26T00:58:11.249Z,101463.63
2022-08-26T01:00:37.644Z,101487.66
2022-08-26T01:03:05.264Z,101470.81
2022-08-26T01:05:33.882Z,101491.41
2022-08-26T01:08:00.256Z,101476.47
2022-08-26T01:10:31.008Z,101482.31
2022-08-26T01:13:01.361Z,101473.78
2022-08-26T01:15:35.131Z,101481.53
2022-08-26T01:18:04.826Z,101475.91
2022-08-26T01:20:53.155Z,101485.00
2022-08-26T01:23:28.713Z,101464.16
2022-08-26T01:26:02.229Z,101469.25
2022-08-26T01:28:33.125Z,101489.53
2022-08-26T01:31:03.786Z,101485.28
2022-08-26T01:33:43.577Z,101469.50
2022-08-26T01:36:11.161Z,101494.31
2022-08-26T01:38:38.432Z,101476.41
2022-08-26T01:41:16.095Z,101496.47
2022-08-26T01:43:49.894Z,101481.78
2022-08-26T01:46:17.968Z,101490.53
2022-08-26T01:48:46.078Z,101492.91
2022-08-26T01:51:14.889Z,101496.66
2022-08-26T01:53:43.098Z,101480.63
2022-08-26T01:56:14.770Z,101483.81
2022-08-26T01:58:53.872Z,101499.31
2022-08-26T02:01:21.465Z,101490.75
2022-08-26T02:04:25.446Z,101498.78
2022-08-26T02:06:53.435Z,101504.59
2022-08-26T02:09:20.545Z,101492.34
2022-08-26T02:11:47.429Z,101485.88
2022-08-26T02:14:19.385Z,101507.81
2022-08-26T02:16:48.885Z,101498.66
2022-08-26T02:19:20.494Z,101517.59
2022-08-26T02:21:51.213Z,101515.47
2022-08-26T02:24:23.504Z,101501.56
2022-08-26T02:26:50.919Z,101516.25
2022-08-26T02:29:31.990Z,101513.78
2022-08-26T02:31:58.643Z,101495.28
2022-08-26T02:34:31.352Z,101508.84
2022-08-26T02:37:00.547Z,101508.50
2022-08-26T02:39:28.533Z,101514.41
2022-08-26T02:41:55.573Z,101511.19
2022-08-26T02:44:21.919Z,101518.16
2022-08-26T02:46:48.552Z,101486.91
2022-08-26T02:49:17.055Z,101496.78
2022-08-26T02:51:43.670Z,101504.59
2022-08-26T02:54:10.041Z,101493.34
2022-08-26T02:56:36.379Z,101498.34
2022-08-26T02:59:02.799Z,101494.09
2022-08-26T03:01:32.626Z,101496.22
2022-08-26T03:04:00.619Z,101507.88
2022-08-26T03:06:27.156Z,101490.25
2022-08-26T03:08:53.623Z,101484.66
2022-08-26T03:11:20.256Z,101477.41
2022-08-26T03:13:48.170Z,101496.59
2022-08-26T03:16:14.645Z,101486.41
2022-08-26T03:18:41.583Z,101500.00
2022-08-26T03:21:10.200Z,101488.44
2022-08-26T03:23:37.756Z,101484.88
2022-08-26T03:26:05.045Z,101487.63
2022-08-26T03:28:32.184Z,101471.09
2022-08-26T03:30:59.041Z,101489.25
2022-08-26T03:33:26.453Z,101480.19
2022-08-26T03:35:54.168Z,101474.53
2022-08-26T03:38:23.448Z,101482.00
2022-08-26T03:40:49.801Z,101481.97
2022-08-26T03:43:17.052Z,101502.28
2022-08-26T03:45:44.328Z,101500.44
2022-08-26T03:48:12.368Z,101496.63
2022-08-26T03:50:38.873Z,101484.06
2022-08-26T03:53:05.236Z,101487.53
2022-08-26T03:55:34.078Z,101497.41
2022-08-26T03:58:00.659Z,101496.91
2022-08-26T04:00:27.317Z,101488.31
2022-08-26T04:02:53.837Z,101504.09
2022-08-26T04:05:22.044Z,101502.72
2022-08-26T04:07:49.526Z,101493.59
2022-08-26T04:10:20.268Z,101494.63
2022-08-26T04:12:46.937Z,101486.31
2022-08-26T04:15:14.897Z,101507.69
2022-08-26T04:17:41.341Z,101490.00
2022-08-26T04:20:08.721Z,101494.31
2022-08-26T04:22:35.789Z,101498.66
2022-08-26T04:25:02.160Z,101494.09
2022-08-26T04:27:28.522Z,101498.72
2022-08-26T04:29:55.398Z,101499.81
2022-08-26T04:32:22.737Z,101509.22
2022-08-26T04:34:49.116Z,101511.91
2022-08-26T04:37:15.697Z,101515.63
2022-08-26T04:39:42.574Z,101516.50
2022-08-26T04:42:10.745Z,101501.78
2022-08-26T04:44:37.397Z,101506.66
2022-08-26T04:47:03.966Z,101513.09
2022-08-26T04:49:35.140Z,101509.41
2022-08-26T04:52:02.424Z,101501.13
2022-08-26T04:54:28.911Z,101502.72
2022-08-26T04:56:55.266Z,101512.66
2022-08-26T04:59:22.585Z,101522.03
2022-08-26T05:01:52.809Z,101523.34
2022-08-26T05:04:20.885Z,101516.22
2022-08-26T05:06:48.334Z,101509.22
2022-08-26T05:09:15.798Z,101510.16
2022-08-26T05:11:42.221Z,101510.59
2022-08-26T05:14:09.013Z,101512.97
2022-08-26T05:16:35.383Z,101516.38
2022-08-26T05:19:02.570Z,101528.16
2022-08-26T05:21:28.924Z,101521.81
2022-08-26T05:23:56.298Z,101512.16
2022-08-26T05:26:25.896Z,101524.22
2022-08-26T05:28:54.750Z,101527.91
2022-08-26T05:31:26.424Z,101512.66
2022-08-26T05:33:53.529Z,101520.19
2022-08-26T05:36:21.660Z,101534.66
2022-08-26T05:38:49.142Z,101522.66
2022-08-26T05:41:20.889Z,101546.94
2022-08-26T05:43:47.799Z,101543.75
2022-08-26T05:46:15.248Z,101536.78
2022-08-26T05:48:44.371Z,101530.13
2022-08-26T05:51:11.790Z,101546.41
2022-08-26T05:53:40.036Z,101539.25
2022-08-26T05:56:11.509Z,101543.50
2022-08-26T05:58:39.960Z,101543.75
2022-08-26T06:01:07.966Z,101555.50
2022-08-26T06:03:38.779Z,101547.28
2022-08-26T06:06:25.838Z,101559.88
2022-08-26T06:08:54.966Z,101565.50
2022-08-26T06:11:23.776Z,101559.38
2022-08-26T06:13:51.957Z,101569.00
2022-08-26T06:16:20.769Z,101572.25
2022-08-26T06:18:48.062Z,101554.13
2022-08-26T06:21:32.882Z,101558.19
2022-08-26T06:24:03.105Z,101561.91
2022-08-26T06:26:30.600Z,101552.03
2022-08-26T06:28:57.185Z,101574.28
2022-08-26T06:31:23.736Z,101566.50
2022-08-26T06:33:50.679Z,101590.56
2022-08-26T06:36:25.460Z,101583.66
2022-08-26T06:38:53.209Z,101579.97
2022-08-26T06:41:21.165Z,101580.75
2022-08-26T06:43:47.735Z,101592.03
2022-08-26T06:46:16.031Z,101589.88
2022-08-26T06:48:43.458Z,101589.13
2022-08-26T06:51:13.075Z,101586.47
2022-08-26T06:53:41.241Z,101599.25
2022-08-26T06:56:10.377Z,101588.03
2022-08-26T06:58:39.301Z,101593.66
2022-08-26T07:01:43.101Z,101613.75
2022-08-26T07:04:11.533Z,101612.69
2022-08-26T07:06:41.126Z,101609.03
2022-08-26T07:09:10.394Z,101607.41
2022-08-26T07:11:38.117Z,101597.28
2022-08-26T07:14:05.152Z,101609.59
2022-08-26T07:16:32.215Z,101602.31
2022-08-26T07:18:59.545Z,101600.94
2022-08-26T07:21:27.978Z,101608.88
2022-08-26T07:24:00.043Z,101601.44
2022-08-26T07:26:29.919Z,101598.22
2022-08-26T07:28:58.076Z,101600.94
2022-08-26T07:31:29.000Z,101606.22
2022-08-26T07:33:57.157Z,101610.25
2022-08-26T07:36:24.605Z,101627.06
2022-08-26T07:38:51.948Z,101612.63
2022-08-26T07:41:20.944Z,101619.34
2022-08-26T07:43:47.309Z,101619.16
2022-08-26T07:46:16.484Z,101625.09
2022-08-26T07:48:46.226Z,101630.28
2022-08-26T07:51:14.169Z,101633.25
2022-08-26T07:53:40.701Z,101625.78
2022-08-26T07:56:07.646Z,101637.53
2022-08-26T07:58:35.268Z,101629.78
2022-08-26T08:01:01.714Z,101630.16
2022-08-26T08:03:31.131Z,101644.09
2022-08-26T08:05:57.500Z,101647.66
2022-08-26T08:08:26.875Z,101635.38
2022-08-26T08:10:55.138Z,101639.06
2022-08-26T08:13:23.685Z,101640.47
2022-08-26T08:15:50.459Z,101637.59
2022-08-26T08:18:17.717Z,101650.56
2022-08-26T08:20:59.446Z,101636.59
2022-08-26T08:23:32.393Z,101652.91
2022-08-26T08:26:06.739Z,101647.22
2022-08-26T08:28:35.878Z,101647.03
2022-08-26T08:31:03.393Z,101658.28
2022-08-26T08:33:29.916Z,101645.19
2022-08-26T08:35:59.664Z,101667.59
2022-08-26T08:38:27.223Z,101650.53
2022-08-26T08:40:53.625Z,101651.09
2022-08-26T08:43:38.249Z,101651.31
2022-08-26T08:46:10.784Z,101658.31
2022-08-26T08:48:42.214Z,101654.81
2022-08-26T08:51:31.088Z,101656.44
2022-08-26T08:53:59.082Z,101644.97
2022-08-26T08:56:41.791Z,101653.78
2022-08-26T08:59:19.417Z,101663.94
2022-08-26T09:01:55.348Z,101663.97
2022-08-26T09:04:49.675Z,101657.25
2022-08-26T09:07:23.064Z,101638.84
2022-08-26T09:10:29.338Z,101659.41
2022-08-26T09:12:55.692Z,101659.94
2022-08-26T09:15:30.195Z,101646.84
2022-08-26T09:18:05.861Z,101660.22
2022-08-26T09:21:01.120Z,101643.66
2022-08-26T09:23:27.992Z,101650.34
2022-08-26T09:26:02.391Z,101665.59
2022-08-26T09:28:31.069Z,101653.28
2022-08-26T09:31:02.065Z,101651.13
2022-08-26T09:33:32.793Z,101659.16
2022-08-26T09:36:22.628Z,101653.25
2022-08-26T09:38:51.385Z,101649.00
2022-08-26T09:41:30.189Z,101661.03
2022-08-26T09:44:14.620Z,101649.25
2022-08-26T09:46:55.559Z,101657.53
2022-08-26T09:49:31.611Z,101661.81
2022-08-26T09:52:19.767Z,101657.00
2022-08-26T09:55:04.168Z,101655.41
2022-08-26T09:57:43.771Z,101657.53
2022-08-26T10:00:40.168Z,101661.00
2022-08-26T10:03:10.891Z,101662.09
2022-08-26T10:05:54.389Z,101666.91
2022-08-26T10:08:26.562Z,101669.81
2022-08-26T10:10:55.241Z,101661.53
2022-08-26T10:13:27.996Z,101669.56
2022-08-26T10:16:21.876Z,101671.47
2022-08-26T10:19:05.922Z,101664.47
2022-08-26T10:21:40.720Z,101669.03
2022-08-26T10:24:14.871Z,101666.09
2022-08-26T10:27:07.621Z,101659.41
2022-08-26T10:29:44.717Z,101669.03
2022-08-26T10:32:24.070Z,101667.41
2022-08-26T10:34:51.895Z,101660.19
2022-08-26T10:37:23.778Z,101663.41
2022-08-26T10:39:58.629Z,101666.34
2022-08-26T10:42:44.420Z,101664.75
2022-08-26T10:45:16.493Z,101667.44
2022-08-26T10:47:53.572Z,101667.97
2022-08-26T10:50:23.931Z,101668.50
2022-08-26T10:53:16.720Z,101671.19
2022-08-26T10:56:00.052Z,101663.72
2022-08-26T10:58:37.734Z,101669.03
2022-08-26T11:01:27.427Z,101667.69
2022-08-26T11:04:10.438Z,101674.34
2022-08-26T11:06:37.362Z,101673.84
2022-08-26T11:09:06.675Z,101670.63
2022-08-26T11:11:43.799Z,101672.50
2022-08-26T11:14:29.086Z,101681.31
2022-08-26T11:16:57.177Z,101677.31
2022-08-26T11:20:08.979Z,101677.84
2022-08-26T11:22:47.684Z,101676.53
2022-08-26T11:25:26.460Z,101678.63
2022-08-26T11:28:00.566Z,101685.88
2022-08-26T11:30:38.903Z,101677.06
2022-08-26T11:33:07.028Z,101675.97
2022-08-26T11:35:37.594Z,101677.81
2022-08-26T11:38:04.284Z,101678.34
2022-08-26T11:40:34.059Z,101673.53
2022-08-26T11:43:06.857Z,101672.47
2022-08-26T11:45:36.047Z,101672.22
2022-08-26T11:48:28.140Z,101673.00
2022-08-26T11:51:01.042Z,101670.84
2022-08-26T11:53:31.429Z,101673.47
2022-08-26T11:56:04.050Z,101672.47
2022-08-26T11:58:30.728Z,101670.56
2022-08-26T12:01:01.596Z,101662.88
2022-08-26T12:03:34.978Z,101669.53
2022-08-26T12:06:02.361Z,101665.00
2022-08-26T12:08:32.837Z,101668.22
2022-08-26T12:11:05.273Z,101671.41
2022-08-26T12:13:31.802Z,101673.25
2022-08-26T12:16:00.425Z,101666.50
2022-08-26T12:18:33.604Z,101671.84
2022-08-26T12:21:10.481Z,101672.34
2022-08-26T12:23:45.957Z,101672.31
2022-08-26T12:26:21.341Z,101672.34
2022-08-26T12:29:00.010Z,101671.56
2022-08-26T12:31:38.917Z,101679.31
2022-08-26T12:34:17.456Z,101673.44
2022-08-26T12:36:52.229Z,101667.56
2022-08-26T12:39:31.407Z,101662.19
2022-08-26T12:42:00.256Z,101659.78
2022-08-26T12:45:00.532Z,101668.66
2022-08-26T12:47:42.566Z,101670.00
2022-08-26T12:50:12.756Z,101681.56
2022-08-26T12:52:54.036Z,101674.06
2022-08-26T12:55:25.044Z,101673.56
2022-08-26T12:58:29.424Z,101674.41
2022-08-26T13:01:18.846Z,101680.53
2022-08-26T13:03:46.450Z,101679.44
2022-08-26T13:06:25.424Z,101685.56
2022-08-26T13:09:18.288Z,101683.44
2022-08-26T13:11:44.687Z,101680.94
2022-08-26T13:14:23.784Z,101680.91
2022-08-26T13:16:52.423Z,101685.13
2022-08-26T13:19:21.681Z,101677.09
2022-08-26T13:21:54.258Z,101676.25
2022-08-26T13:24:28.648Z,101676.53
2022-08-26T13:26:55.177Z,101674.66
2022-08-26T13:29:21.748Z,101681.34
2022-08-26T13:31:48.625Z,101688.53
2022-08-26T13:34:18.134Z,101687.75
2022-08-26T13:36:45.554Z,101672.78
2022-08-26T13:39:12.664Z,101675.47
2022-08-26T13:41:39.578Z,101671.41
2022-08-26T13:44:06.367Z,101669.00
2022-08-26T13:46:33.195Z,101664.09
2022-08-26T13:48:59.808Z,101662.53
2022-08-26T13:51:27.034Z,101665.69
2022-08-26T13:53:53.892Z,101665.69
2022-08-26T13:56:21.074Z,101667.19
2022-08-26T13:58:47.588Z,101669.13
2022-08-26T14:01:16.992Z,101666.28
2022-08-26T14:03:43.462Z,101671.16
2022-08-26T14:06:10.791Z,101669.16
2022-08-26T14:08:38.603Z,101667.84
2022-08-26T14:11:05.471Z,101665.22
2022-08-26T14:13:31.850Z,101659.41
2022-08-26T14:15:58.557Z,101671.94
2022-08-26T14:18:31.674Z,101669.56
2022-08-26T14:20:58.327Z,101671.97
2022-08-26T14:23:25.081Z,101673.03
2022-08-26T14:25:52.144Z,101672.78
2022-08-26T14:28:18.732Z,101670.91
2022-08-26T14:30:50.900Z,101675.16
2022-08-26T14:33:22.532Z,101672.78
2022-08-26T14:35:49.106Z,101669.31
2022-08-26T14:38:16.352Z,101668.75
2022-08-26T14:40:43.252Z,101670.56
2022-08-26T14:43:10.150Z,101665.19
2022-08-26T14:48:13.694Z,101675.22
2022-08-26T14:50:40.088Z,101673.78
2022-08-26T14:53:06.462Z,101681.25
2022-08-26T14:55:35.313Z,101677.75
2022-08-26T14:58:01.938Z,101682.34
2022-08-26T15:00:29.103Z,101681.78
2022-08-26T15:02:56.026Z,101680.72
2022-08-26T15:05:22.563Z,101682.00
2022-08-26T15:07:48.958Z,101680.94
2022-08-26T15:10:16.598Z,101681.78
2022-08-26T15:12:43.269Z,101671.66
2022-08-26T15:15:11.929Z,101675.72
2022-08-26T15:17:39.032Z,101680.53
2022-08-26T15:20:06.211Z,101677.59
2022-08-26T15:22:32.620Z,101669.84
2022-08-26T15:24:59.188Z,101667.97
2022-08-26T15:27:25.632Z,101672.22
2022-08-26T15:29:52.116Z,101664.69
2022-08-26T15:32:18.949Z,101677.50
2022-08-26T15:34:45.505Z,101680.09
2022-08-26T15:37:12.426Z,101668.06
2022-08-26T15:39:38.821Z,101674.16
2022-08-26T15:42:05.552Z,101671.38
2022-08-26T15:44:34.856Z,101664.94
2022-08-26T15:47:01.332Z,101665.44
2022-08-26T15:49:27.812Z,101670.69
2022-08-26T15:51:54.257Z,101664.81
2022-08-26T15:54:23.089Z,101665.38
2022-08-26T15:56:49.927Z,101664.56
2022-08-26T15:59:16.664Z,101663.34
2022-08-26T16:01:43.590Z,101657.75
2022-08-26T16:04:10.369Z,101661.28
2022-08-26T16:06:39.588Z,101649.59
2022-08-26T16:09:07.367Z,101641.16
2022-08-26T16:11:35.027Z,101657.13
2022-08-26T16:14:01.956Z,101652.97
2022-08-26T16:16:28.588Z,101647.72
2022-08-26T16:18:55.002Z,101648.78
2022-08-26T16:21:25.387Z,101650.34
2022-08-26T16:23:52.047Z,101655.72
2022-08-26T16:26:22.462Z,101649.84
2022-08-26T16:28:48.931Z,101652.59
2022-08-26T16:31:16.157Z,101639.75
2022-08-26T16:33:43.017Z,101643.53
2022-08-26T16:36:11.558Z,101645.63
2022-08-26T16:38:39.373Z,101648.84
2022-08-26T16:41:06.984Z,101649.69
2022-08-26T16:43:33.952Z,101645.75
2022-08-26T16:46:00.762Z,101650.78
2022-08-26T16:48:27.363Z,101648.09
2022-08-26T16:50:53.927Z,101652.59
2022-08-26T16:53:20.309Z,101658.69
2022-08-26T16:55:48.119Z,101648.34
2022-08-26T16:58:15.051Z,101651.19
2022-08-26T17:00:41.839Z,101665.28
2022-08-26T17:03:08.913Z,101673.81
2022-08-26T17:05:35.756Z,101662.25
2022-08-26T17:08:02.565Z,101669.44
2022-08-26T17:10:29.941Z,101671.03
2022-08-26T17:12:57.123Z,101683.97
2022-08-26T17:15:23.851Z,101684.47
2022-08-26T17:17:51.635Z,101676.38
2022-08-26T17:20:19.102Z,101690.91
2022-08-26T17:22:47.655Z,101689.31
2022-08-26T17:25:19.017Z,101682.13
2022-08-26T17:27:45.661Z,101694.09
2022-08-26T17:30:12.967Z,101696.75
2022-08-26T17:32:40.775Z,101695.41
2022-08-26T17:35:07.419Z,101702.75
2022-08-26T17:37:33.816Z,101707.63
2022-08-26T17:40:00.758Z,101701.28
2022-08-26T17:42:31.490Z,101705.47
2022-08-26T17:44:58.328Z,101698.84
2022-08-26T17:47:24.768Z,101702.63
2022-08-26T17:49:51.192Z,101706.03
2022-08-26T17:52:17.582Z,101705.53
2022-08-26T17:54:43.966Z,101709.19
2022-08-26T17:57:10.664Z,101703.81
2022-08-26T17:59:37.357Z,101710.50
2022-08-26T18:02:07.298Z,101701.88
2022-08-26T18:04:33.660Z,101709.63
2022-08-26T18:07:00.074Z,101701.88
2022-08-26T18:09:28.902Z,101701.03
2022-08-26T18:11:55.305Z,101709.13
2022-08-26T18:14:21.729Z,101703.56
2022-08-26T18:16:48.181Z,101713.06
2022-08-26T18:19:14.509Z,101707.16
2022-08-26T18:21:40.897Z,101713.53
2022-08-26T18:24:11.042Z,101714.31
2022-08-26T18:26:40.965Z,101711.13
2022-08-26T18:29:07.831Z,101719.09
2022-08-26T18:31:34.738Z,101714.44
2022-08-26T18:34:02.543Z,101722.41
2022-08-26T18:36:33.808Z,101725.56
2022-08-26T18:39:00.862Z,101730.09
2022-08-26T18:41:29.658Z,101733.41
2022-08-26T18:43:56.561Z,101736.28
2022-08-26T18:46:25.386Z,101734.94
2022-08-26T18:48:53.596Z,101735.97
2022-08-26T18:51:23.062Z,101731.81
2022-08-26T18:53:49.833Z,101736.00
2022-08-26T18:56:18.543Z,101733.47
2022-08-26T18:58:45.975Z,101738.78
2022-08-26T19:01:13.631Z,101736.63
2022-08-26T19:03:40.398Z,101744.03
2022-08-26T19:06:07.064Z,101739.91
2022-08-26T19:08:33.395Z,101739.34
2022-08-26T19:11:00.488Z,101740.16
2022-08-26T19:13:26.891Z,101743.53
2022-08-26T19:15:53.231Z,101746.75
2022-08-26T19:18:19.608Z,101748.28
2022-08-26T19:20:46.902Z,101751.66
2022-08-26T19:23:31.021Z,101752.47
2022-08-26T19:25:58.361Z,101756.97
2022-08-26T19:28:24.746Z,101750.44
2022-08-26T19:30:53.094Z,101750.63
2022-08-26T19:33:19.874Z,101758.03
2022-08-26T19:35:46.298Z,101756.66
2022-08-26T19:38:13.771Z,101766.00
2022-08-26T19:40:40.190Z,101757.22
2022-08-26T19:43:07.063Z,101762.34
2022-08-26T19:45:34.659Z,101758.34
2022-08-26T19:48:01.713Z,101763.09
2022-08-26T19:50:30.449Z,101760.09
2022-08-26T19:52:57.817Z,101755.34
2022-08-26T19:55:24.597Z,101756.59
2022-08-26T19:57:51.360Z,101760.78
2022-08-26T20:00:24.689Z,101757.16
2022-08-26T20:02:51.964Z,101753.72
2022-08-26T20:05:21.505Z,101758.47
2022-08-26T20:07:49.013Z,101760.66
2022-08-26T20:10:17.836Z,101772.06
2022-08-26T20:12:44.434Z,101767.47
2022-08-26T20:15:12.580Z,101766.56
2022-08-26T20:17:40.284Z,101763.56
2022-08-26T20:20:26.701Z,101762.06
2022-08-26T20:22:55.465Z,101763.34
2022-08-26T20:25:22.042Z,101758.50
2022-08-26T20:27:48.458Z,101751.09
2022-08-26T20:30:15.288Z,101762.56
2022-08-26T20:32:42.116Z,101771.19
2022-08-26T20:35:11.749Z,101763.00
2022-08-26T20:37:38.504Z,101757.69
2022-08-26T20:40:06.757Z,101759.31
2022-08-26T20:42:33.161Z,101761.41
2022-08-26T20:44:59.583Z,101773.06
2022-08-26T20:47:26.012Z,101775.72
2022-08-26T20:49:55.695Z,101773.53
2022-08-26T20:52:22.137Z,101769.25
2022-08-26T20:54:48.576Z,101771.78
2022-08-26T20:57:15.015Z,101774.72
2022-08-26T20:59:41.455Z,101780.25
2022-08-26T21:02:08.019Z,101784.50
2022-08-26T21:04:34.643Z,101782.31
2022-08-26T21:07:01.132Z,101786.56
2022-08-26T21:09:27.752Z,101780.81
2022-08-26T21:11:55.865Z,101782.09
2022-08-26T21:14:22.553Z,101779.69
2022-08-26T21:16:49.183Z,101786.34
2022-08-26T21:19:18.069Z,101775.88
2022-08-26T21:21:46.710Z,101777.47
2022-08-26T21:24:13.158Z,101762.13
2022-08-26T21:26:40.198Z,101770.56
2022-08-26T21:29:06.846Z,101770.56
2022-08-26T21:31:33.292Z,101777.72
2022-08-26T21:33:59.978Z,101778.53
2022-08-26T21:36:26.413Z,101784.88
2022-08-26T21:38:55.960Z,101777.03
2022-08-26T21:41:22.620Z,101780.25
2022-08-26T21:43:51.139Z,101772.53
2022-08-26T21:46:20.169Z,101777.84
2022-08-26T21:48:50.869Z,101778.91
2022-08-26T21:51:20.339Z,101784.44
2022-08-26T21:53:47.003Z,101782.22
2022-08-26T21:56:16.639Z,101782.22
2022-08-26T21:58:43.244Z,101780.06
2022-08-26T22:01:11.794Z,101775.53
2022-08-26T22:03:47.451Z,101783.50
2022-08-26T22:06:18.708Z,101782.94
2022-08-26T22:08:45.291Z,101788.25
2022-08-26T22:11:12.261Z,101776.25
2022-08-26T22:13:40.655Z,101780.75
2022-08-26T22:16:08.099Z,101778.22
2022-08-26T22:18:35.844Z,101773.03
2022-08-26T22:21:06.341Z,101776.81
2022-08-26T22:23:32.810Z,101774.28
2022-08-26T22:26:00.077Z,101785.25
2022-08-26T22:28:26.739Z,101776.00
2022-08-26T22:30:53.157Z,101780.59
2022-08-26T22:33:19.843Z,101783.59
2022-08-26T22:35:48.633Z,101781.03
2022-08-26T22:38:16.026Z,101783.81
2022-08-26T22:40:45.110Z,101783.09
2022-08-26T22:43:12.084Z,101775.25
2022-08-26T22:45:43.957Z,101788.13
2022-08-26T22:48:11.681Z,101786.19
2022-08-26T22:50:38.604Z,101782.38
2022-08-26T22:53:05.026Z,101783.16
2022-08-26T22:55:31.469Z,101784.66
2022-08-26T22:57:57.942Z,101779.22
2022-08-26T23:00:31.818Z,101777.81
2022-08-26T23:02:59.840Z,101779.31
2022-08-26T23:05:26.766Z,101770.78
2022-08-26T23:07:53.260Z,101768.78
2022-08-26T23:10:20.036Z,101766.13
2022-08-26T23:12:46.481Z,101770.84
2022-08-26T23:15:12.912Z,101772.91
2022-08-26T23:17:39.887Z,101772.34
2022-08-26T23:20:10.008Z,101771.97
2022-08-26T23:22:37.037Z,101774.84
2022-08-26T23:25:06.797Z,101771.81
2022-08-26T23:27:39.835Z,101775.28
2022-08-26T23:30:07.960Z,101783.44
2022-08-26T23:32:34.578Z,101777.34
2022-08-26T23:35:01.221Z,101780.00
2022-08-26T23:37:33.472Z,101782.66
2022-08-26T23:40:04.981Z,101778.38
2022-08-26T23:42:31.403Z,101771.22
2022-08-26T23:44:57.828Z,101772.50
2022-08-26T23:47:24.473Z,101763.97
2022-08-26T23:49:50.907Z,101763.38
2022-08-26T23:52:17.299Z,101748.19
2022-08-26T23:54:43.728Z,101755.75
2022-08-26T23:57:10.369Z,101759.28
2022-08-26T23:59:38.667Z,101758.56
